sensor_id;sensor_type;location;lat;lon;timestamp;P1;durP1;ratioP1;P2;durP2;ratioP2
2698;SDS011;1359;51.798;12.174;2023-01-09T00:01:49;8.33;;;7.30;;
2698;SDS011;1359;51.798;12.174;2023-01-09T00:04:14;7.60;;;6.83;;
2698;SDS011;1359;51.798;12.174;2023-01-09T00:06:39;10.83;;;7.50;;
2698;SDS011;1359;51.798;12.174;2023-01-09T00:09:07;8.50;;;7.00;;
2698;SDS011;1359;51.798;12.174;2023-01-09T00:11:32;7.83;;;7.03;;
2698;SDS011;1359;51.798;12.174;2023-01-09T00:13:57;7.43;;;6.63;;
2698;SDS011;1359;51.798;12.174;2023-01-09T00:16:22;8.07;;;6.93;;
2698;SDS011;1359;51.798;12.174;2023-01-09T00:18:48;6.30;;;5.78;;
2698;SDS011;1359;51.798;12.174;2023-01-09T00:21:13;9.17;;;7.60;;
2698;SDS011;1359;51.798;12.174;2023-01-09T00:23:38;10.00;;;7.93;;
2698;SDS011;1359;51.798;12.174;2023-01-09T00:28:28;8.77;;;7.50;;
2698;SDS011;1359;51.798;12.174;2023-01-09T00:30:54;12.00;;;6.90;;
2698;SDS011;1359;51.798;12.174;2023-01-09T00:33:20;11.43;;;7.27;;
2698;SDS011;1359;51.798;12.174;2023-01-09T00:35:47;8.37;;;7.53;;
2698;SDS011;1359;51.798;12.174;2023-01-09T00:38:12;9.75;;;7.88;;
2698;SDS011;1359;51.798;12.174;2023-01-09T00:40:37;9.38;;;8.38;;
2698;SDS011;1359;51.798;12.174;2023-01-09T00:43:02;9.60;;;8.65;;
2698;SDS011;1359;51.798;12.174;2023-01-09T00:45:27;9.30;;;8.40;;
2698;SDS011;1359;51.798;12.174;2023-01-09T00:47:53;9.03;;;8.17;;
2698;SDS011;1359;51.798;12.174;2023-01-09T00:50:20;11.03;;;8.00;;
2698;SDS011;1359;51.798;12.174;2023-01-09T00:52:47;9.80;;;8.20;;
2698;SDS011;1359;51.798;12.174;2023-01-09T00:55:13;11.43;;;8.33;;
2698;SDS011;1359;51.798;12.174;2023-01-09T00:57:38;10.00;;;7.87;;
2698;SDS011;1359;51.798;12.174;2023-01-09T01:00:03;18.83;;;9.33;;
2698;SDS011;1359;51.798;12.174;2023-01-09T01:02:29;10.10;;;8.73;;
2698;SDS011;1359;51.798;12.174;2023-01-09T01:04:54;10.18;;;9.05;;
2698;SDS011;1359;51.798;12.174;2023-01-09T01:07:38;8.87;;;7.83;;
2698;SDS011;1359;51.798;12.174;2023-01-09T01:10:07;10.70;;;9.60;;
2698;SDS011;1359;51.798;12.174;2023-01-09T01:12:34;9.90;;;8.80;;
2698;SDS011;1359;51.798;12.174;2023-01-09T01:14:59;10.20;;;8.73;;
2698;SDS011;1359;51.798;12.174;2023-01-09T01:17:24;11.93;;;9.67;;
2698;SDS011;1359;51.798;12.174;2023-01-09T01:19:49;11.63;;;10.43;;
2698;SDS011;1359;51.798;12.174;2023-01-09T01:22:15;9.20;;;8.27;;
2698;SDS011;1359;51.798;12.174;2023-01-09T01:24:40;10.75;;;8.98;;
2698;SDS011;1359;51.798;12.174;2023-01-09T01:27:05;10.20;;;8.90;;
2698;SDS011;1359;51.798;12.174;2023-01-09T01:29:30;11.00;;;9.43;;
2698;SDS011;1359;51.798;12.174;2023-01-09T01:31:56;11.95;;;8.88;;
2698;SDS011;1359;51.798;12.174;2023-01-09T01:34:21;14.13;;;10.10;;
2698;SDS011;1359;51.798;12.174;2023-01-09T01:36:46;10.38;;;9.30;;
2698;SDS011;1359;51.798;12.174;2023-01-09T01:39:11;12.60;;;9.07;;
2698;SDS011;1359;51.798;12.174;2023-01-09T01:41:36;9.80;;;8.80;;
2698;SDS011;1359;51.798;12.174;2023-01-09T01:44:03;10.93;;;9.70;;
2698;SDS011;1359;51.798;12.174;2023-01-09T01:46:29;11.43;;;8.70;;
2698;SDS011;1359;51.798;12.174;2023-01-09T01:49:11;10.33;;;9.27;;
2698;SDS011;1359;51.798;12.174;2023-01-09T01:51:42;10.97;;;9.17;;
2698;SDS011;1359;51.798;12.174;2023-01-09T01:54:10;13.70;;;10.17;;
2698;SDS011;1359;51.798;12.174;2023-01-09T01:56:38;9.60;;;8.60;;
2698;SDS011;1359;51.798;12.174;2023-01-09T01:59:06;14.27;;;9.70;;
2698;SDS011;1359;51.798;12.174;2023-01-09T02:01:33;9.30;;;8.40;;
2698;SDS011;1359;51.798;12.174;2023-01-09T02:04:00;9.73;;;8.57;;
2698;SDS011;1359;51.798;12.174;2023-01-09T02:06:26;12.20;;;8.57;;
2698;SDS011;1359;51.798;12.174;2023-01-09T02:08:51;11.50;;;9.30;;
2698;SDS011;1359;51.798;12.174;2023-01-09T02:11:17;8.18;;;7.00;;
2698;SDS011;1359;51.798;12.174;2023-01-09T02:13:43;9.40;;;8.20;;
2698;SDS011;1359;51.798;12.174;2023-01-09T02:18:53;8.30;;;7.40;;
2698;SDS011;1359;51.798;12.174;2023-01-09T02:24:07;13.97;;;9.60;;
2698;SDS011;1359;51.798;12.174;2023-01-09T02:26:34;12.60;;;8.40;;
2698;SDS011;1359;51.798;12.174;2023-01-09T02:39:34;9.73;;;7.73;;
2698;SDS011;1359;51.798;12.174;2023-01-09T02:42:07;10.07;;;9.07;;
2698;SDS011;1359;51.798;12.174;2023-01-09T02:44:34;10.47;;;8.07;;
2698;SDS011;1359;51.798;12.174;2023-01-09T02:49:25;10.17;;;8.70;;
2698;SDS011;1359;51.798;12.174;2023-01-09T02:51:51;11.17;;;8.07;;
2698;SDS011;1359;51.798;12.174;2023-01-09T02:56:49;9.80;;;7.95;;
2698;SDS011;1359;51.798;12.174;2023-01-09T03:01:55;9.63;;;8.63;;
2698;SDS011;1359;51.798;12.174;2023-01-09T03:04:35;11.37;;;8.37;;
2698;SDS011;1359;51.798;12.174;2023-01-09T03:09:33;8.97;;;8.00;;
2698;SDS011;1359;51.798;12.174;2023-01-09T03:12:02;9.60;;;7.57;;
2698;SDS011;1359;51.798;12.174;2023-01-09T03:14:30;8.37;;;6.80;;
2698;SDS011;1359;51.798;12.174;2023-01-09T03:16:58;7.50;;;6.80;;
2698;SDS011;1359;51.798;12.174;2023-01-09T03:19:25;9.60;;;7.13;;
2698;SDS011;1359;51.798;12.174;2023-01-09T03:21:51;10.33;;;7.53;;
2698;SDS011;1359;51.798;12.174;2023-01-09T03:24:17;8.53;;;7.70;;
2698;SDS011;1359;51.798;12.174;2023-01-09T03:26:42;6.97;;;6.28;;
2698;SDS011;1359;51.798;12.174;2023-01-09T03:29:07;8.13;;;6.80;;
2698;SDS011;1359;51.798;12.174;2023-01-09T03:31:33;8.60;;;7.80;;
2698;SDS011;1359;51.798;12.174;2023-01-09T03:33:58;11.02;;;7.60;;
2698;SDS011;1359;51.798;12.174;2023-01-09T03:36:23;7.33;;;6.63;;
2698;SDS011;1359;51.798;12.174;2023-01-09T03:38:49;8.63;;;7.63;;
2698;SDS011;1359;51.798;12.174;2023-01-09T03:41:15;8.60;;;7.77;;
2698;SDS011;1359;51.798;12.174;2023-01-09T03:43:40;7.77;;;6.73;;
2698;SDS011;1359;51.798;12.174;2023-01-09T03:46:05;7.78;;;6.95;;
2698;SDS011;1359;51.798;12.174;2023-01-09T03:48:30;9.27;;;7.47;;
2698;SDS011;1359;51.798;12.174;2023-01-09T03:50:56;8.13;;;6.57;;
2698;SDS011;1359;51.798;12.174;2023-01-09T03:53:22;9.77;;;8.00;;
2698;SDS011;1359;51.798;12.174;2023-01-09T03:55:48;8.50;;;7.60;;
2698;SDS011;1359;51.798;12.174;2023-01-09T03:58:14;8.07;;;6.30;;
2698;SDS011;1359;51.798;12.174;2023-01-09T04:00:39;8.77;;;7.07;;
2698;SDS011;1359;51.798;12.174;2023-01-09T04:03:08;8.40;;;7.60;;
2698;SDS011;1359;51.798;12.174;2023-01-09T04:05:34;11.20;;;7.60;;
2698;SDS011;1359;51.798;12.174;2023-01-09T04:07:59;8.50;;;7.70;;
2698;SDS011;1359;51.798;12.174;2023-01-09T04:10:24;10.00;;;7.80;;
2698;SDS011;1359;51.798;12.174;2023-01-09T04:12:49;12.98;;;9.02;;
2698;SDS011;1359;51.798;12.174;2023-01-09T04:15:15;9.90;;;8.03;;
2698;SDS011;1359;51.798;12.174;2023-01-09T04:17:40;9.90;;;8.50;;
2698;SDS011;1359;51.798;12.174;2023-01-09T04:20:05;10.20;;;8.00;;
2698;SDS011;1359;51.798;12.174;2023-01-09T04:22:30;10.20;;;8.20;;
2698;SDS011;1359;51.798;12.174;2023-01-09T04:24:56;10.30;;;7.63;;
2698;SDS011;1359;51.798;12.174;2023-01-09T04:27:21;7.30;;;6.60;;
2698;SDS011;1359;51.798;12.174;2023-01-09T04:29:46;9.57;;;7.87;;
2698;SDS011;1359;51.798;12.174;2023-01-09T04:32:11;7.90;;;6.87;;
2698;SDS011;1359;51.798;12.174;2023-01-09T04:34:36;9.13;;;7.22;;
2698;SDS011;1359;51.798;12.174;2023-01-09T04:37:01;9.97;;;8.87;;
2698;SDS011;1359;51.798;12.174;2023-01-09T04:39:27;8.20;;;7.30;;
2698;SDS011;1359;51.798;12.174;2023-01-09T04:41:52;9.23;;;7.50;;
2698;SDS011;1359;51.798;12.174;2023-01-09T04:44:18;10.50;;;8.65;;
2698;SDS011;1359;51.798;12.174;2023-01-09T04:46:43;9.23;;;7.67;;
2698;SDS011;1359;51.798;12.174;2023-01-09T04:49:09;8.73;;;7.57;;
2698;SDS011;1359;51.798;12.174;2023-01-09T04:51:34;10.07;;;7.43;;
2698;SDS011;1359;51.798;12.174;2023-01-09T04:53:59;8.83;;;7.93;;
2698;SDS011;1359;51.798;12.174;2023-01-09T04:56:24;11.03;;;8.00;;
2698;SDS011;1359;51.798;12.174;2023-01-09T04:58:49;10.88;;;8.00;;
2698;SDS011;1359;51.798;12.174;2023-01-09T05:01:14;7.13;;;6.25;;
2698;SDS011;1359;51.798;12.174;2023-01-09T05:03:40;10.48;;;8.15;;
2698;SDS011;1359;51.798;12.174;2023-01-09T05:06:05;8.05;;;6.15;;
2698;SDS011;1359;51.798;12.174;2023-01-09T05:08:30;10.17;;;7.67;;
2698;SDS011;1359;51.798;12.174;2023-01-09T05:10:55;8.95;;;7.63;;
2698;SDS011;1359;51.798;12.174;2023-01-09T05:13:20;10.35;;;7.75;;
2698;SDS011;1359;51.798;12.174;2023-01-09T05:15:45;10.85;;;7.93;;
2698;SDS011;1359;51.798;12.174;2023-01-09T05:18:10;13.23;;;7.82;;
2698;SDS011;1359;51.798;12.174;2023-01-09T05:20:35;12.32;;;7.57;;
2698;SDS011;1359;51.798;12.174;2023-01-09T05:23:01;8.40;;;7.40;;
2698;SDS011;1359;51.798;12.174;2023-01-09T05:25:26;12.00;;;9.00;;
2698;SDS011;1359;51.798;12.174;2023-01-09T05:27:51;15.90;;;11.05;;
2698;SDS011;1359;51.798;12.174;2023-01-09T05:30:17;13.20;;;9.63;;
2698;SDS011;1359;51.798;12.174;2023-01-09T05:32:42;8.63;;;7.37;;
2698;SDS011;1359;51.798;12.174;2023-01-09T05:35:07;10.00;;;6.73;;
2698;SDS011;1359;51.798;12.174;2023-01-09T05:37:33;12.30;;;7.77;;
2698;SDS011;1359;51.798;12.174;2023-01-09T05:39:58;8.90;;;7.13;;
2698;SDS011;1359;51.798;12.174;2023-01-09T05:42:23;8.30;;;7.18;;
2698;SDS011;1359;51.798;12.174;2023-01-09T05:44:48;7.72;;;7.03;;
2698;SDS011;1359;51.798;12.174;2023-01-09T05:47:13;8.98;;;5.90;;
2698;SDS011;1359;51.798;12.174;2023-01-09T05:49:38;8.18;;;6.38;;
2698;SDS011;1359;51.798;12.174;2023-01-09T05:52:03;10.50;;;6.60;;
2698;SDS011;1359;51.798;12.174;2023-01-09T05:54:29;8.53;;;7.67;;
2698;SDS011;1359;51.798;12.174;2023-01-09T05:56:54;8.03;;;6.50;;
2698;SDS011;1359;51.798;12.174;2023-01-09T05:59:19;9.02;;;7.78;;
2698;SDS011;1359;51.798;12.174;2023-01-09T06:01:44;9.30;;;7.63;;
2698;SDS011;1359;51.798;12.174;2023-01-09T06:04:09;9.97;;;8.30;;
2698;SDS011;1359;51.798;12.174;2023-01-09T06:06:34;12.27;;;8.60;;
2698;SDS011;1359;51.798;12.174;2023-01-09T06:09:00;12.43;;;8.02;;
2698;SDS011;1359;51.798;12.174;2023-01-09T06:11:25;8.30;;;6.87;;
2698;SDS011;1359;51.798;12.174;2023-01-09T06:13:50;10.15;;;7.47;;
2698;SDS011;1359;51.798;12.174;2023-01-09T06:16:15;8.30;;;7.45;;
2698;SDS011;1359;51.798;12.174;2023-01-09T06:18:40;8.60;;;7.10;;
2698;SDS011;1359;51.798;12.174;2023-01-09T06:21:05;7.85;;;6.95;;
2698;SDS011;1359;51.798;12.174;2023-01-09T06:23:30;8.10;;;7.20;;
2698;SDS011;1359;51.798;12.174;2023-01-09T06:25:56;11.57;;;8.75;;
2698;SDS011;1359;51.798;12.174;2023-01-09T06:28:21;10.15;;;9.15;;
2698;SDS011;1359;51.798;12.174;2023-01-09T06:30:48;8.43;;;7.20;;
2698;SDS011;1359;51.798;12.174;2023-01-09T06:33:14;10.07;;;7.53;;
2698;SDS011;1359;51.798;12.174;2023-01-09T06:35:39;8.10;;;6.90;;
2698;SDS011;1359;51.798;12.174;2023-01-09T06:38:04;8.20;;;7.40;;
2698;SDS011;1359;51.798;12.174;2023-01-09T06:40:29;6.93;;;6.33;;
2698;SDS011;1359;51.798;12.174;2023-01-09T06:42:54;7.50;;;6.70;;
2698;SDS011;1359;51.798;12.174;2023-01-09T06:45:20;8.10;;;6.50;;
2698;SDS011;1359;51.798;12.174;2023-01-09T06:47:45;10.00;;;6.53;;
2698;SDS011;1359;51.798;12.174;2023-01-09T06:50:10;9.57;;;6.37;;
2698;SDS011;1359;51.798;12.174;2023-01-09T06:52:35;6.63;;;5.30;;
2698;SDS011;1359;51.798;12.174;2023-01-09T06:55:01;6.60;;;5.90;;
2698;SDS011;1359;51.798;12.174;2023-01-09T06:57:26;7.85;;;5.97;;
2698;SDS011;1359;51.798;12.174;2023-01-09T06:59:51;6.53;;;5.90;;
2698;SDS011;1359;51.798;12.174;2023-01-09T07:02:17;8.03;;;5.50;;
2698;SDS011;1359;51.798;12.174;2023-01-09T07:04:43;6.30;;;5.17;;
2698;SDS011;1359;51.798;12.174;2023-01-09T07:07:08;7.78;;;6.03;;
2698;SDS011;1359;51.798;12.174;2023-01-09T07:09:33;6.77;;;4.70;;
2698;SDS011;1359;51.798;12.174;2023-01-09T07:11:58;7.30;;;6.33;;
2698;SDS011;1359;51.798;12.174;2023-01-09T07:14:23;6.53;;;5.53;;
2698;SDS011;1359;51.798;12.174;2023-01-09T07:16:48;6.40;;;5.75;;
2698;SDS011;1359;51.798;12.174;2023-01-09T07:19:13;5.70;;;5.20;;
2698;SDS011;1359;51.798;12.174;2023-01-09T07:21:39;9.20;;;6.23;;
2698;SDS011;1359;51.798;12.174;2023-01-09T07:24:04;6.20;;;5.22;;
2698;SDS011;1359;51.798;12.174;2023-01-09T07:26:29;6.67;;;6.00;;
2698;SDS011;1359;51.798;12.174;2023-01-09T07:28:54;9.30;;;6.95;;
2698;SDS011;1359;51.798;12.174;2023-01-09T07:31:19;7.13;;;5.43;;
2698;SDS011;1359;51.798;12.174;2023-01-09T07:33:44;7.00;;;6.07;;
2698;SDS011;1359;51.798;12.174;2023-01-09T07:36:09;5.88;;;4.97;;
2698;SDS011;1359;51.798;12.174;2023-01-09T07:38:35;5.87;;;5.27;;
2698;SDS011;1359;51.798;12.174;2023-01-09T07:41:00;5.87;;;5.27;;
2698;SDS011;1359;51.798;12.174;2023-01-09T07:43:25;6.40;;;5.43;;
2698;SDS011;1359;51.798;12.174;2023-01-09T07:45:51;6.50;;;5.18;;
2698;SDS011;1359;51.798;12.174;2023-01-09T07:48:16;7.50;;;6.22;;
2698;SDS011;1359;51.798;12.174;2023-01-09T07:50:41;8.18;;;5.95;;
2698;SDS011;1359;51.798;12.174;2023-01-09T07:53:06;7.10;;;6.05;;
2698;SDS011;1359;51.798;12.174;2023-01-09T07:55:31;7.47;;;4.47;;
2698;SDS011;1359;51.798;12.174;2023-01-09T07:57:56;5.80;;;5.20;;
2698;SDS011;1359;51.798;12.174;2023-01-09T08:00:21;5.55;;;4.93;;
2698;SDS011;1359;51.798;12.174;2023-01-09T08:02:50;6.70;;;5.40;;
2698;SDS011;1359;51.798;12.174;2023-01-09T08:05:17;6.60;;;5.90;;
2698;SDS011;1359;51.798;12.174;2023-01-09T08:07:42;6.47;;;4.63;;
2698;SDS011;1359;51.798;12.174;2023-01-09T08:10:08;8.13;;;6.00;;
2698;SDS011;1359;51.798;12.174;2023-01-09T08:12:34;7.00;;;6.27;;
2698;SDS011;1359;51.798;12.174;2023-01-09T08:14:59;6.93;;;4.97;;
2698;SDS011;1359;51.798;12.174;2023-01-09T08:17:25;5.90;;;5.30;;
2698;SDS011;1359;51.798;12.174;2023-01-09T08:19:50;7.18;;;6.03;;
2698;SDS011;1359;51.798;12.174;2023-01-09T08:22:15;6.97;;;5.95;;
2698;SDS011;1359;51.798;12.174;2023-01-09T08:24:40;7.93;;;5.47;;
2698;SDS011;1359;51.798;12.174;2023-01-09T08:27:05;6.30;;;5.70;;
2698;SDS011;1359;51.798;12.174;2023-01-09T08:29:30;6.23;;;5.63;;
2698;SDS011;1359;51.798;12.174;2023-01-09T08:31:55;13.60;;;6.07;;
2698;SDS011;1359;51.798;12.174;2023-01-09T08:34:21;5.90;;;5.30;;
2698;SDS011;1359;51.798;12.174;2023-01-09T08:36:46;7.60;;;5.60;;
2698;SDS011;1359;51.798;12.174;2023-01-09T08:39:12;5.80;;;5.10;;
2698;SDS011;1359;51.798;12.174;2023-01-09T08:41:37;6.10;;;5.50;;
2698;SDS011;1359;51.798;12.174;2023-01-09T08:44:21;6.03;;;4.80;;
2698;SDS011;1359;51.798;12.174;2023-01-09T08:47:05;5.93;;;4.80;;
2698;SDS011;1359;51.798;12.174;2023-01-09T08:49:31;6.10;;;4.43;;
2698;SDS011;1359;51.798;12.174;2023-01-09T08:51:56;5.47;;;4.97;;
2698;SDS011;1359;51.798;12.174;2023-01-09T08:54:21;5.73;;;4.30;;
2698;SDS011;1359;51.798;12.174;2023-01-09T08:56:46;4.83;;;4.43;;
2698;SDS011;1359;51.798;12.174;2023-01-09T08:59:11;6.67;;;4.40;;
2698;SDS011;1359;51.798;12.174;2023-01-09T09:01:37;4.60;;;4.20;;
2698;SDS011;1359;51.798;12.174;2023-01-09T09:04:02;4.47;;;4.07;;
2698;SDS011;1359;51.798;12.174;2023-01-09T09:06:29;4.97;;;4.20;;
2698;SDS011;1359;51.798;12.174;2023-01-09T09:08:54;4.25;;;3.60;;
2698;SDS011;1359;51.798;12.174;2023-01-09T09:11:20;5.27;;;4.30;;
2698;SDS011;1359;51.798;12.174;2023-01-09T09:13:45;4.65;;;3.90;;
2698;SDS011;1359;51.798;12.174;2023-01-09T09:16:10;3.60;;;3.30;;
2698;SDS011;1359;51.798;12.174;2023-01-09T09:18:35;3.75;;;3.45;;
2698;SDS011;1359;51.798;12.174;2023-01-09T09:21:00;4.45;;;4.05;;
2698;SDS011;1359;51.798;12.174;2023-01-09T09:23:25;5.63;;;5.15;;
2698;SDS011;1359;51.798;12.174;2023-01-09T09:25:50;3.60;;;3.28;;
2698;SDS011;1359;51.798;12.174;2023-01-09T09:28:16;3.65;;;3.35;;
2698;SDS011;1359;51.798;12.174;2023-01-09T09:30:41;3.22;;;2.92;;
2698;SDS011;1359;51.798;12.174;2023-01-09T09:33:06;2.93;;;2.73;;
2698;SDS011;1359;51.798;12.174;2023-01-09T09:35:32;3.90;;;2.90;;
2698;SDS011;1359;51.798;12.174;2023-01-09T09:37:58;3.80;;;2.97;;
2698;SDS011;1359;51.798;12.174;2023-01-09T09:40:33;2.63;;;2.40;;
2698;SDS011;1359;51.798;12.174;2023-01-09T09:43:06;2.20;;;2.00;;
2698;SDS011;1359;51.798;12.174;2023-01-09T09:48:50;4.57;;;2.63;;
2698;SDS011;1359;51.798;12.174;2023-01-09T09:51:25;3.13;;;2.83;;
2698;SDS011;1359;51.798;12.174;2023-01-09T09:53:56;3.70;;;2.70;;
2698;SDS011;1359;51.798;12.174;2023-01-09T09:56:24;5.00;;;3.17;;
2698;SDS011;1359;51.798;12.174;2023-01-09T09:58:51;5.10;;;2.43;;
2698;SDS011;1359;51.798;12.174;2023-01-09T10:01:18;2.40;;;1.90;;
2698;SDS011;1359;51.798;12.174;2023-01-09T10:03:45;2.30;;;1.80;;
2698;SDS011;1359;51.798;12.174;2023-01-09T10:06:14;2.03;;;1.83;;
2698;SDS011;1359;51.798;12.174;2023-01-09T10:11:12;1.53;;;1.43;;
2698;SDS011;1359;51.798;12.174;2023-01-09T10:13:39;1.50;;;1.30;;
2698;SDS011;1359;51.798;12.174;2023-01-09T10:16:26;1.70;;;1.53;;
2698;SDS011;1359;51.798;12.174;2023-01-09T10:18:59;2.57;;;1.67;;
2698;SDS011;1359;51.798;12.174;2023-01-09T10:21:31;3.83;;;2.90;;
2698;SDS011;1359;51.798;12.174;2023-01-09T10:24:14;3.63;;;1.70;;
2698;SDS011;1359;51.798;12.174;2023-01-09T10:26:51;1.50;;;1.30;;
2698;SDS011;1359;51.798;12.174;2023-01-09T10:31:58;1.50;;;1.40;;
2698;SDS011;1359;51.798;12.174;2023-01-09T10:34:45;2.27;;;2.03;;
2698;SDS011;1359;51.798;12.174;2023-01-09T10:42:49;1.77;;;1.60;;
2698;SDS011;1359;51.798;12.174;2023-01-09T10:47:42;2.53;;;2.17;;
2698;SDS011;1359;51.798;12.174;2023-01-09T10:50:14;1.87;;;1.63;;
2698;SDS011;1359;51.798;12.174;2023-01-09T10:52:40;1.70;;;1.50;;
2698;SDS011;1359;51.798;12.174;2023-01-09T10:55:21;1.90;;;1.43;;
2698;SDS011;1359;51.798;12.174;2023-01-09T10:57:50;3.00;;;2.23;;
2698;SDS011;1359;51.798;12.174;2023-01-09T11:00:20;3.70;;;1.70;;
2698;SDS011;1359;51.798;12.174;2023-01-09T11:02:46;1.47;;;1.20;;
2698;SDS011;1359;51.798;12.174;2023-01-09T11:05:13;4.83;;;1.80;;
2698;SDS011;1359;51.798;12.174;2023-01-09T11:07:38;2.33;;;1.50;;
2698;SDS011;1359;51.798;12.174;2023-01-09T11:10:07;1.80;;;1.23;;
2698;SDS011;1359;51.798;12.174;2023-01-09T11:12:34;3.37;;;1.20;;
2698;SDS011;1359;51.798;12.174;2023-01-09T11:17:40;2.10;;;1.40;;
2698;SDS011;1359;51.798;12.174;2023-01-09T11:20:10;1.70;;;1.40;;
2698;SDS011;1359;51.798;12.174;2023-01-09T11:22:42;1.80;;;1.47;;
2698;SDS011;1359;51.798;12.174;2023-01-09T11:25:10;2.00;;;1.53;;
2698;SDS011;1359;51.798;12.174;2023-01-09T11:27:35;2.20;;;1.50;;
2698;SDS011;1359;51.798;12.174;2023-01-09T11:32:29;1.90;;;1.27;;
2698;SDS011;1359;51.798;12.174;2023-01-09T11:34:55;1.70;;;1.30;;
2698;SDS011;1359;51.798;12.174;2023-01-09T11:37:23;2.47;;;1.50;;
2698;SDS011;1359;51.798;12.174;2023-01-09T11:39:49;6.70;;;1.50;;
2698;SDS011;1359;51.798;12.174;2023-01-09T11:42:33;1.60;;;1.30;;
2698;SDS011;1359;51.798;12.174;2023-01-09T11:45:17;4.00;;;1.80;;
2698;SDS011;1359;51.798;12.174;2023-01-09T11:47:43;3.17;;;1.77;;
2698;SDS011;1359;51.798;12.174;2023-01-09T11:52:40;2.70;;;1.63;;
2698;SDS011;1359;51.798;12.174;2023-01-09T11:55:05;3.17;;;1.30;;
2698;SDS011;1359;51.798;12.174;2023-01-09T11:57:34;1.70;;;1.53;;
2698;SDS011;1359;51.798;12.174;2023-01-09T12:00:03;3.73;;;1.50;;
2698;SDS011;1359;51.798;12.174;2023-01-09T12:02:46;3.03;;;1.60;;
2698;SDS011;1359;51.798;12.174;2023-01-09T12:05:31;1.47;;;1.20;;
2698;SDS011;1359;51.798;12.174;2023-01-09T12:08:02;1.50;;;1.13;;
2698;SDS011;1359;51.798;12.174;2023-01-09T12:18:23;2.27;;;1.50;;
2698;SDS011;1359;51.798;12.174;2023-01-09T12:21:03;4.80;;;1.60;;
2698;SDS011;1359;51.798;12.174;2023-01-09T12:31:33;2.50;;;2.27;;
2698;SDS011;1359;51.798;12.174;2023-01-09T12:36:35;2.23;;;1.60;;
2698;SDS011;1359;51.798;12.174;2023-01-09T12:39:20;8.30;;;3.10;;
2698;SDS011;1359;51.798;12.174;2023-01-09T12:44:26;4.93;;;1.40;;
2698;SDS011;1359;51.798;12.174;2023-01-09T12:49:41;2.43;;;1.83;;
2698;SDS011;1359;51.798;12.174;2023-01-09T12:52:20;1.60;;;1.10;;
2698;SDS011;1359;51.798;12.174;2023-01-09T12:57:18;2.30;;;1.30;;
2698;SDS011;1359;51.798;12.174;2023-01-09T12:59:46;1.80;;;1.70;;
2698;SDS011;1359;51.798;12.174;2023-01-09T13:04:40;2.25;;;1.50;;
2698;SDS011;1359;51.798;12.174;2023-01-09T13:07:17;3.00;;;1.17;;
2698;SDS011;1359;51.798;12.174;2023-01-09T13:09:52;1.80;;;1.33;;
2698;SDS011;1359;51.798;12.174;2023-01-09T13:12:21;2.33;;;1.33;;
2698;SDS011;1359;51.798;12.174;2023-01-09T13:14:49;3.10;;;1.80;;
2698;SDS011;1359;51.798;12.174;2023-01-09T13:17:23;2.10;;;1.47;;
2698;SDS011;1359;51.798;12.174;2023-01-09T13:19:50;2.83;;;1.60;;
2698;SDS011;1359;51.798;12.174;2023-01-09T13:22:17;2.00;;;1.50;;
2698;SDS011;1359;51.798;12.174;2023-01-09T13:27:26;1.77;;;1.67;;
2698;SDS011;1359;51.798;12.174;2023-01-09T13:29:59;4.27;;;1.43;;
2698;SDS011;1359;51.798;12.174;2023-01-09T13:35:10;2.13;;;1.40;;
2698;SDS011;1359;51.798;12.174;2023-01-09T13:37:36;1.50;;;1.33;;
2698;SDS011;1359;51.798;12.174;2023-01-09T13:42:29;3.50;;;3.20;;
2698;SDS011;1359;51.798;12.174;2023-01-09T13:47:44;2.53;;;1.47;;
2698;SDS011;1359;51.798;12.174;2023-01-09T13:52:38;1.70;;;1.10;;
2698;SDS011;1359;51.798;12.174;2023-01-09T13:57:35;2.23;;;1.70;;
2698;SDS011;1359;51.798;12.174;2023-01-09T14:05:11;2.03;;;1.40;;
2698;SDS011;1359;51.798;12.174;2023-01-09T14:07:43;2.67;;;1.77;;
2698;SDS011;1359;51.798;12.174;2023-01-09T14:12:46;4.23;;;1.40;;
2698;SDS011;1359;51.798;12.174;2023-01-09T14:17:52;2.90;;;1.33;;
2698;SDS011;1359;51.798;12.174;2023-01-09T14:20:26;1.87;;;1.10;;
2698;SDS011;1359;51.798;12.174;2023-01-09T14:22:56;1.40;;;1.00;;
2698;SDS011;1359;51.798;12.174;2023-01-09T14:25:25;3.23;;;1.20;;
2698;SDS011;1359;51.798;12.174;2023-01-09T14:32:59;3.40;;;1.40;;
2698;SDS011;1359;51.798;12.174;2023-01-09T14:35:36;6.60;;;1.20;;
2698;SDS011;1359;51.798;12.174;2023-01-09T14:38:04;2.90;;;0.90;;
2698;SDS011;1359;51.798;12.174;2023-01-09T14:40:30;2.13;;;1.30;;
2698;SDS011;1359;51.798;12.174;2023-01-09T14:42:56;1.90;;;1.50;;
2698;SDS011;1359;51.798;12.174;2023-01-09T14:45:24;4.07;;;2.17;;
2698;SDS011;1359;51.798;12.174;2023-01-09T14:48:09;1.60;;;1.40;;
2698;SDS011;1359;51.798;12.174;2023-01-09T14:50:36;1.60;;;1.40;;
2698;SDS011;1359;51.798;12.174;2023-01-09T14:53:06;1.80;;;1.30;;
2698;SDS011;1359;51.798;12.174;2023-01-09T14:55:35;2.43;;;1.50;;
2698;SDS011;1359;51.798;12.174;2023-01-09T14:58:10;1.80;;;1.50;;
2698;SDS011;1359;51.798;12.174;2023-01-09T15:00:35;1.70;;;1.23;;
2698;SDS011;1359;51.798;12.174;2023-01-09T15:03:00;1.60;;;1.10;;
2698;SDS011;1359;51.798;12.174;2023-01-09T15:05:26;2.13;;;1.50;;
2698;SDS011;1359;51.798;12.174;2023-01-09T15:07:55;2.03;;;1.23;;
2698;SDS011;1359;51.798;12.174;2023-01-09T15:10:23;1.93;;;1.37;;
2698;SDS011;1359;51.798;12.174;2023-01-09T15:12:49;1.80;;;1.50;;
2698;SDS011;1359;51.798;12.174;2023-01-09T15:15:15;1.50;;;1.03;;
2698;SDS011;1359;51.798;12.174;2023-01-09T15:17:41;2.40;;;1.73;;
2698;SDS011;1359;51.798;12.174;2023-01-09T15:20:15;2.00;;;1.40;;
2698;SDS011;1359;51.798;12.174;2023-01-09T15:22:42;2.07;;;1.60;;
2698;SDS011;1359;51.798;12.174;2023-01-09T15:25:20;1.90;;;1.30;;
2698;SDS011;1359;51.798;12.174;2023-01-09T15:27:47;2.47;;;1.63;;
2698;SDS011;1359;51.798;12.174;2023-01-09T15:30:13;2.97;;;1.60;;
2698;SDS011;1359;51.798;12.174;2023-01-09T15:32:40;1.70;;;1.30;;
2698;SDS011;1359;51.798;12.174;2023-01-09T15:35:11;1.93;;;1.70;;
2698;SDS011;1359;51.798;12.174;2023-01-09T15:37:36;3.30;;;2.50;;
2698;SDS011;1359;51.798;12.174;2023-01-09T15:40:03;2.33;;;2.13;;
2698;SDS011;1359;51.798;12.174;2023-01-09T15:42:30;3.30;;;2.00;;
2698;SDS011;1359;51.798;12.174;2023-01-09T15:47:45;2.90;;;2.30;;
2698;SDS011;1359;51.798;12.174;2023-01-09T15:50:12;3.50;;;2.97;;
2698;SDS011;1359;51.798;12.174;2023-01-09T15:52:37;3.23;;;2.60;;
2698;SDS011;1359;51.798;12.174;2023-01-09T15:55:05;4.07;;;3.10;;
2698;SDS011;1359;51.798;12.174;2023-01-09T15:57:48;4.47;;;2.83;;
2698;SDS011;1359;51.798;12.174;2023-01-09T16:02:55;3.30;;;2.23;;
2698;SDS011;1359;51.798;12.174;2023-01-09T16:05:42;3.00;;;2.40;;
2698;SDS011;1359;51.798;12.174;2023-01-09T16:08:47;3.30;;;2.53;;
2698;SDS011;1359;51.798;12.174;2023-01-09T16:11:01;2.63;;;2.20;;
2698;SDS011;1359;51.798;12.174;2023-01-09T16:13:27;3.17;;;2.67;;
2698;SDS011;1359;51.798;12.174;2023-01-09T16:15:52;3.40;;;2.53;;
2698;SDS011;1359;51.798;12.174;2023-01-09T16:18:19;3.53;;;2.40;;
2698;SDS011;1359;51.798;12.174;2023-01-09T16:20:44;9.47;;;3.13;;
2698;SDS011;1359;51.798;12.174;2023-01-09T16:23:22;16.20;;;8.97;;
2698;SDS011;1359;51.798;12.174;2023-01-09T16:25:48;3.77;;;3.47;;
2698;SDS011;1359;51.798;12.174;2023-01-09T16:30:47;4.72;;;4.10;;
2698;SDS011;1359;51.798;12.174;2023-01-09T16:33:18;4.07;;;2.63;;
2698;SDS011;1359;51.798;12.174;2023-01-09T16:35:44;11.17;;;8.80;;
2698;SDS011;1359;51.798;12.174;2023-01-09T16:38:11;16.75;;;13.95;;
2698;SDS011;1359;51.798;12.174;2023-01-09T16:40:37;4.23;;;3.87;;
2698;SDS011;1359;51.798;12.174;2023-01-09T16:43:03;5.05;;;3.78;;
2698;SDS011;1359;51.798;12.174;2023-01-09T16:45:30;4.33;;;3.97;;
2698;SDS011;1359;51.798;12.174;2023-01-09T16:47:55;2.23;;;2.00;;
2698;SDS011;1359;51.798;12.174;2023-01-09T16:50:22;2.20;;;2.00;;
2698;SDS011;1359;51.798;12.174;2023-01-09T16:52:48;3.07;;;1.80;;
2698;SDS011;1359;51.798;12.174;2023-01-09T16:55:13;3.47;;;2.10;;
2698;SDS011;1359;51.798;12.174;2023-01-09T16:57:38;1.90;;;1.60;;
2698;SDS011;1359;51.798;12.174;2023-01-09T17:00:05;1.70;;;1.50;;